Time;durP1;ratioP1;P1;durP2;ratioP2;P2;SDS_P1;SDS_P2;PMS_P1;PMS_P2;Temp;Humidity;BMP_temperature;BMP_pressure;BME280_temperature;BME280_humidity;BME280_pressure;Samples;Min_cycle;Max_cycle;Signal;HPM_P1;HPM_P2
2022/07/04 00:02:12;;;;;;;;;0.00;0.00;;;;;;;;5059928;28;45663;-71
2022/07/04 00:04:37;;;;;;;;;0.00;0.00;;;;;;;;5076512;28;46758;-70
2022/07/04 00:07:02;;;;;;;;;5.33;4.00;;;;;;;;5076819;28;45379;-70
2022/07/04 00:09:28;;;;;;;;;0.67;0.00;;;;;;;;5076750;28;45267;-70
2022/07/04 00:11:53;;;;;;;;;0.67;0.00;;;;;;;;5077069;28;45549;-70
2022/07/04 00:14:18;;;;;;;;;0.00;0.00;;;;;;;;5076470;28;45606;-71
2022/07/04 00:16:43;;;;;;;;;0.00;0.00;;;;;;;;5076517;28;45444;-70
2022/07/04 00:19:09;;;;;;;;;0.67;0.67;;;;;;;;5076772;28;45470;-70
2022/07/04 00:21:34;;;;;;;;;0.00;0.00;;;;;;;;5076573;28;45514;-70
2022/07/04 00:24:00;;;;;;;;;0.00;0.00;;;;;;;;5076470;28;45710;-70
2022/07/04 00:26:25;;;;;;;;;2.00;1.00;;;;;;;;5076368;28;45777;-70
2022/07/04 00:28:50;;;;;;;;;0.00;0.00;;;;;;;;5111480;27;45520;-71
2022/07/04 00:31:16;;;;;;;;;0.00;0.00;;;;;;;;5119886;27;45417;-70
2022/07/04 00:33:41;;;;;;;;;0.00;0.00;;;;;;;;5119552;27;47267;-71
2022/07/04 00:36:07;;;;;;;;;2.33;1.00;;;;;;;;5119599;27;45327;-71
2022/07/04 00:38:32;;;;;;;;;0.00;0.00;;;;;;;;5119207;27;45487;-71
2022/07/04 00:40:57;;;;;;;;;1.33;0.00;;;;;;;;5119903;27;45503;-71
2022/07/04 00:43:23;;;;;;;;;3.00;0.67;;;;;;;;5119398;27;45428;-70
2022/07/04 00:45:49;;;;;;;;;1.33;0.00;;;;;;;;5119310;27;45440;-71
2022/07/04 00:48:15;;;;;;;;;0.00;0.00;;;;;;;;5119491;27;45349;-70
2022/07/04 00:50:41;;;;;;;;;0.00;0.00;;;;;;;;5119529;27;45443;-70
2022/07/04 00:53:06;;;;;;;;;0.00;0.00;;;;;;;;5119045;27;46158;-70
2022/07/04 00:55:32;;;;;;;;;1.00;0.00;;;;;;;;5119371;27;45709;-70
2022/07/04 00:57:57;;;;;;;;;0.00;0.00;;;;;;;;5119261;27;45373;-70
2022/07/04 01:00:22;;;;;;;;;0.00;0.00;;;;;;;;5119374;27;45430;-70
2022/07/04 01:02:47;;;;;;;;;1.00;0.00;;;;;;;;5119060;27;46346;-70
2022/07/04 01:05:13;;;;;;;;;2.00;0.00;;;;;;;;5119254;27;45441;-70
2022/07/04 01:07:39;;;;;;;;;0.00;0.00;;;;;;;;5119073;27;45822;-71
2022/07/04 01:10:04;;;;;;;;;3.00;1.00;;;;;;;;5119299;27;45385;-70
2022/07/04 01:12:30;;;;;;;;;2.67;0.67;;;;;;;;5118900;27;47275;-70
2022/07/04 01:14:55;;;;;;;;;3.33;1.33;;;;;;;;5118833;27;45422;-70
2022/07/04 01:17:21;;;;;;;;;2.00;0.00;;;;;;;;5118996;27;45638;-70
2022/07/04 01:19:46;;;;;;;;;2.00;0.00;;;;;;;;5119067;27;45244;-69
2022/07/04 01:22:11;;;;;;;;;3.67;0.67;;;;;;;;5118436;27;46165;-70
2022/07/04 01:24:37;;;;;;;;;0.00;0.00;;;;;;;;5118921;27;45382;-70
2022/07/04 01:27:02;;;;;;;;;0.33;0.33;;;;;;;;5118887;27;45351;-70
2022/07/04 01:29:27;;;;;;;;;0.00;0.00;;;;;;;;5119055;27;45367;-70
2022/07/04 01:31:53;;;;;;;;;2.00;0.67;;;;;;;;5117347;27;48049;-70
2022/07/04 01:34:19;;;;;;;;;1.00;0.67;;;;;;;;5118609;27;45292;-70
2022/07/04 01:36:44;;;;;;;;;0.00;0.00;;;;;;;;5118836;27;45400;-70
2022/07/04 01:39:09;;;;;;;;;0.00;0.00;;;;;;;;5118655;27;45495;-70
2022/07/04 01:41:35;;;;;;;;;2.00;1.00;;;;;;;;5118667;27;46546;-70
2022/07/04 01:44:00;;;;;;;;;0.33;0.33;;;;;;;;5118375;27;45384;-71
2022/07/04 01:46:26;;;;;;;;;0.00;0.00;;;;;;;;5118639;27;45412;-71
2022/07/04 01:48:51;;;;;;;;;1.33;0.00;;;;;;;;5118414;27;45419;-71
2022/07/04 01:51:16;;;;;;;;;2.00;1.00;;;;;;;;5117958;27;45328;-71
2022/07/04 01:53:41;;;;;;;;;2.00;1.00;;;;;;;;5118312;27;45401;-71
2022/07/04 01:56:06;;;;;;;;;0.67;0.67;;;;;;;;5118520;27;45712;-71
2022/07/04 01:58:32;;;;;;;;;1.00;1.00;;;;;;;;5118402;27;45487;-71
2022/07/04 02:03:41;;;;;;;;;0.33;0.33;;;;;;;;5118123;27;45719;-71
2022/07/04 02:06:06;;;;;;;;;1.00;1.00;;;;;;;;5118258;27;45355;-71
2022/07/04 02:09:14;;;;;;;;;3.33;1.00;;;;;;;;5118403;27;45404;-71
2022/07/04 02:11:17;;;;;;;;;2.00;1.00;;;;;;;;5117995;27;45364;-70
2022/07/04 02:13:42;;;;;;;;;1.00;1.00;;;;;;;;5118055;27;45298;-70
2022/07/04 02:16:07;;;;;;;;;2.00;0.67;;;;;;;;5118336;27;45215;-70
2022/07/04 02:18:33;;;;;;;;;1.00;1.00;;;;;;;;5118109;27;45384;-70
2022/07/04 02:20:58;;;;;;;;;1.67;1.00;;;;;;;;5117847;27;47299;-71
2022/07/04 02:23:23;;;;;;;;;4.67;1.00;;;;;;;;5117989;27;45414;-70
2022/07/04 02:25:49;;;;;;;;;2.00;1.00;;;;;;;;5117908;27;45306;-70
2022/07/04 02:28:14;;;;;;;;;0.67;0.00;;;;;;;;5118335;27;45551;-70
2022/07/04 02:30:39;;;;;;;;;2.00;1.00;;;;;;;;5117543;27;46594;-70
2022/07/04 02:33:04;;;;;;;;;5.00;1.33;;;;;;;;5117808;27;45381;-71
2022/07/04 02:35:30;;;;;;;;;2.00;2.00;;;;;;;;5118243;27;45161;-70
2022/07/04 02:37:55;;;;;;;;;3.33;1.00;;;;;;;;5117852;27;45682;-70
2022/07/04 02:40:20;;;;;;;;;2.00;0.67;;;;;;;;5117718;27;46283;-69
2022/07/04 02:42:45;;;;;;;;;1.00;1.00;;;;;;;;5117683;27;45433;-69
2022/07/04 02:45:11;;;;;;;;;2.00;0.00;;;;;;;;5117946;27;45496;-69
2022/07/04 02:47:36;;;;;;;;;2.00;1.00;;;;;;;;5117968;27;45373;-69
2022/07/04 02:50:02;;;;;;;;;2.00;1.00;;;;;;;;5117498;27;46117;-70
2022/07/04 02:52:27;;;;;;;;;3.00;1.00;;;;;;;;5117551;27;45660;-71
2022/07/04 02:54:52;;;;;;;;;1.00;1.00;;;;;;;;5117748;27;45679;-70
2022/07/04 02:57:18;;;;;;;;;1.00;1.00;;;;;;;;5117843;27;45448;-71
2022/07/04 02:59:43;;;;;;;;;3.00;2.00;;;;;;;;5117375;27;45595;-70
2022/07/04 03:02:08;;;;;;;;;0.67;0.67;;;;;;;;5119636;27;45302;-69
2022/07/04 03:04:34;;;;;;;;;2.00;0.00;;;;;;;;5121934;27;45426;-70
2022/07/04 03:06:59;;;;;;;;;1.00;1.00;;;;;;;;5121876;27;45275;-70
2022/07/04 03:09:27;;;;;;;;;1.33;1.33;;;;;;;;5121323;27;46263;-70
2022/07/04 03:11:52;;;;;;;;;1.00;1.00;;;;;;;;5121509;27;45383;-70
2022/07/04 03:14:17;;;;;;;;;1.00;0.67;;;;;;;;5121554;27;45298;-70
2022/07/04 03:16:42;;;;;;;;;1.67;1.67;;;;;;;;5121675;27;45335;-70
2022/07/04 03:19:08;;;;;;;;;1.67;1.67;;;;;;;;5121124;27;45322;-70
2022/07/04 03:21:33;;;;;;;;;1.33;0.67;;;;;;;;5120833;27;45471;-70
2022/07/04 03:23:58;;;;;;;;;3.33;0.33;;;;;;;;5120023;27;45307;-71
2022/07/04 03:26:29;;;;;;;;;2.67;1.33;;;;;;;;5120499;27;45337;-69
2022/07/04 03:28:54;;;;;;;;;1.67;0.67;;;;;;;;5119972;27;46577;-69
2022/07/04 03:31:19;;;;;;;;;1.33;0.67;;;;;;;;5120299;27;45351;-70
2022/07/04 03:33:45;;;;;;;;;1.00;0.67;;;;;;;;5121108;27;45313;-70
2022/07/04 03:36:10;;;;;;;;;1.67;1.67;;;;;;;;5121025;27;45294;-70
2022/07/04 03:38:35;;;;;;;;;1.67;0.67;;;;;;;;5120480;27;46080;-70
2022/07/04 03:41:00;;;;;;;;;2.00;1.67;;;;;;;;5121186;27;45298;-69
2022/07/04 03:43:25;;;;;;;;;1.33;1.00;;;;;;;;5121103;27;45305;-69
2022/07/04 03:45:51;;;;;;;;;2.33;1.33;;;;;;;;5121432;27;45398;-69
2022/07/04 03:48:16;;;;;;;;;2.67;1.00;;;;;;;;5120898;27;46480;-69
2022/07/04 03:50:41;;;;;;;;;2.67;2.67;;;;;;;;5120708;27;45395;-70
2022/07/04 03:53:06;;;;;;;;;3.33;1.00;;;;;;;;5120637;27;45397;-69
2022/07/04 03:55:32;;;;;;;;;1.67;1.67;;;;;;;;5121052;27;45356;-69
2022/07/04 03:57:57;;;;;;;;;3.00;1.67;;;;;;;;5120697;27;46248;-69
2022/07/04 04:00:22;;;;;;;;;4.33;4.33;;;;;;;;5120396;27;45330;-69
2022/07/04 04:02:48;;;;;;;;;11.33;9.33;;;;;;;;5120742;27;45340;-69
2022/07/04 04:05:30;;;;;;;;;5.00;3.33;;;;;;;;5120710;27;45334;-69
2022/07/04 04:07:59;;;;;;;;;7.33;4.00;;;;;;;;5120470;27;46106;-69
2022/07/04 04:10:25;;;;;;;;;3.00;3.00;;;;;;;;5120449;27;45326;-69
2022/07/04 04:12:51;;;;;;;;;16.00;13.67;;;;;;;;5119877;27;45394;-69
2022/07/04 04:15:16;;;;;;;;;8.00;6.00;;;;;;;;5120346;27;45799;-69
2022/07/04 04:17:41;;;;;;;;;6.00;6.00;;;;;;;;5120042;27;45268;-69
2022/07/04 04:20:08;;;;;;;;;4.00;4.00;;;;;;;;5120135;27;45316;-69
2022/07/04 04:22:33;;;;;;;;;6.67;6.00;;;;;;;;5120573;27;45241;-70
2022/07/04 04:24:59;;;;;;;;;10.67;5.67;;;;;;;;5120331;27;45296;-69
2022/07/04 04:27:24;;;;;;;;;6.67;4.67;;;;;;;;5120156;27;46326;-70
2022/07/04 04:29:49;;;;;;;;;6.00;6.00;;;;;;;;5120152;27;45383;-70
2022/07/04 04:32:14;;;;;;;;;6.33;4.00;;;;;;;;5120379;27;45279;-70
2022/07/04 04:34:39;;;;;;;;;9.67;7.33;;;;;;;;5120317;27;45426;-70
2022/07/04 04:37:05;;;;;;;;;13.00;11.33;;;;;;;;5120136;27;45503;-69
2022/07/04 04:39:30;;;;;;;;;7.00;4.00;;;;;;;;5119735;27;45175;-69
2022/07/04 04:41:55;;;;;;;;;5.00;2.67;;;;;;;;5119973;27;45364;-69
2022/07/04 04:44:20;;;;;;;;;10.67;8.33;;;;;;;;5120001;27;45250;-69
2022/07/04 04:46:46;;;;;;;;;5.67;5.67;;;;;;;;5119937;27;45668;-70
2022/07/04 04:49:11;;;;;;;;;5.00;5.00;;;;;;;;5119597;27;45244;-70
2022/07/04 04:51:36;;;;;;;;;7.67;6.67;;;;;;;;5119668;27;45649;-70
2022/07/04 04:54:02;;;;;;;;;13.00;8.67;;;;;;;;5119948;27;45274;-71
2022/07/04 04:56:27;;;;;;;;;6.67;6.67;;;;;;;;5119667;27;45703;-70
2022/07/04 04:58:52;;;;;;;;;5.33;5.00;;;;;;;;5119746;27;45348;-70
2022/07/04 05:01:17;;;;;;;;;7.33;5.67;;;;;;;;5119459;27;45374;-70
2022/07/04 05:03:43;;;;;;;;;4.67;4.67;;;;;;;;5119790;27;45243;-70
2022/07/04 05:06:08;;;;;;;;;5.33;3.33;;;;;;;;5119568;27;45438;-70
2022/07/04 05:08:33;;;;;;;;;16.00;9.00;;;;;;;;5119212;27;45203;-70
2022/07/04 05:10:58;;;;;;;;;10.00;5.67;;;;;;;;5119741;27;45383;-70
2022/07/04 05:13:24;;;;;;;;;9.00;6.33;;;;;;;;5118797;27;45669;-71
2022/07/04 05:15:49;;;;;;;;;6.67;4.33;;;;;;;;5118783;27;46723;-70
2022/07/04 05:18:15;;;;;;;;;8.67;8.33;;;;;;;;5119254;27;45279;-70
2022/07/04 05:20:41;;;;;;;;;9.00;6.67;;;;;;;;5119503;27;45459;-70
2022/07/04 05:23:07;;;;;;;;;7.33;6.00;;;;;;;;5119355;27;45487;-70
2022/07/04 05:25:32;;;;;;;;;7.50;7.50;;;;;;;;5117975;27;45456;-70
2022/07/04 05:27:57;;;;;;;;;19.00;14.00;;;;;;;;5119124;27;45293;-70
2022/07/04 05:30:23;;;;;;;;;5.00;5.00;;;;;;;;5120446;27;45376;-70
2022/07/04 05:32:48;;;;;;;;;5.00;4.00;;;;;;;;5119389;27;45361;-71
2022/07/04 05:35:13;;;;;;;;;11.67;4.00;;;;;;;;5120319;27;45401;-71
2022/07/04 05:37:38;;;;;;;;;9.33;7.33;;;;;;;;5119333;27;45336;-71
2022/07/04 05:40:04;;;;;;;;;5.33;4.67;;;;;;;;5119068;27;45347;-71
2022/07/04 05:42:29;;;;;;;;;6.00;4.00;;;;;;;;5118858;27;45367;-71
2022/07/04 05:44:54;;;;;;;;;4.00;3.00;;;;;;;;5119100;27;45361;-71
2022/07/04 05:47:23;;;;;;;;;6.00;4.00;;;;;;;;5118300;27;45490;-70
2022/07/04 05:49:48;;;;;;;;;5.33;4.00;;;;;;;;5118860;27;45444;-70
2022/07/04 05:52:14;;;;;;;;;7.00;5.00;;;;;;;;5116958;27;45487;-71
2022/07/04 05:54:39;;;;;;;;;5.00;4.67;;;;;;;;5118627;27;45530;-71
2022/07/04 05:57:04;;;;;;;;;9.00;5.00;;;;;;;;5118132;27;45293;-70
2022/07/04 05:59:29;;;;;;;;;6.33;5.00;;;;;;;;5118458;27;45225;-70
2022/07/04 06:01:55;;;;;;;;;6.00;5.00;;;;;;;;5118329;27;45417;-69
2022/07/04 06:04:21;;;;;;;;;6.00;3.67;;;;;;;;5118088;27;45632;-70
2022/07/04 06:06:46;;;;;;;;;5.00;5.00;;;;;;;;5117851;27;45551;-70
2022/07/04 06:09:11;;;;;;;;;8.33;5.33;;;;;;;;5118683;27;45417;-70
2022/07/04 06:11:36;;;;;;;;;6.67;4.33;;;;;;;;5118629;27;45359;-70
2022/07/04 06:14:02;;;;;;;;;11.67;10.00;;;;;;;;5118385;27;45617;-70
2022/07/04 06:16:27;;;;;;;;;7.33;6.00;;;;;;;;5118549;27;45294;-70
2022/07/04 06:18:52;;;;;;;;;12.33;11.33;;;;;;;;5118697;27;45314;-71
2022/07/04 06:21:17;;;;;;;;;6.33;5.67;;;;;;;;5118822;27;45284;-71
2022/07/04 06:23:42;;;;;;;;;8.33;8.33;;;;;;;;5118489;27;46549;-70
2022/07/04 06:26:09;;;;;;;;;8.67;6.67;;;;;;;;5118236;27;45430;-70
2022/07/04 06:28:34;;;;;;;;;10.67;8.00;;;;;;;;5118417;27;45383;-70
2022/07/04 06:30:59;;;;;;;;;10.00;7.00;;;;;;;;5118820;27;45355;-72
2022/07/04 06:33:24;;;;;;;;;13.33;11.00;;;;;;;;5118246;27;45374;-71
2022/07/04 06:35:54;;;;;;;;;9.67;7.33;;;;;;;;5119730;27;45435;-70
2022/07/04 06:38:21;;;;;;;;;7.00;7.00;;;;;;;;5122018;27;45412;-71
2022/07/04 06:40:46;;;;;;;;;10.33;8.33;;;;;;;;5122005;27;45405;-70
2022/07/04 06:43:12;;;;;;;;;9.33;6.00;;;;;;;;5121543;27;45484;-70
2022/07/04 06:45:37;;;;;;;;;12.00;9.00;;;;;;;;5121858;27;45371;-70
2022/07/04 06:48:06;;;;;;;;;7.00;7.00;;;;;;;;5121899;27;45314;-70
2022/07/04 06:50:32;;;;;;;;;9.33;9.00;;;;;;;;5122023;27;45570;-71
2022/07/04 06:53:01;;;;;;;;;13.00;13.00;;;;;;;;5121553;27;47253;-70
2022/07/04 06:55:37;;;;;;;;;13.67;9.33;;;;;;;;5121639;27;45891;-70
2022/07/04 06:58:02;;;;;;;;;11.67;10.67;;;;;;;;5121645;27;45316;-70
2022/07/04 07:00:30;;;;;;;;;12.67;12.67;;;;;;;;5121512;27;45377;-70
2022/07/04 07:02:55;;;;;;;;;6.67;5.67;;;;;;;;5121282;27;47403;-69
2022/07/04 07:05:20;;;;;;;;;11.33;8.00;;;;;;;;5121543;27;45445;-70
2022/07/04 07:07:46;;;;;;;;;11.33;9.00;;;;;;;;5121544;27;45298;-69
2022/07/04 07:10:11;;;;;;;;;9.33;8.00;;;;;;;;5121607;27;45388;-70
2022/07/04 07:12:36;;;;;;;;;8.33;7.00;;;;;;;;5121272;27;46353;-70
2022/07/04 07:15:01;;;;;;;;;8.33;7.33;;;;;;;;5121507;27;45195;-70
2022/07/04 07:17:27;;;;;;;;;14.00;10.33;;;;;;;;5121187;27;45195;-71
2022/07/04 07:19:52;;;;;;;;;11.67;10.33;;;;;;;;5121569;27;45253;-70
2022/07/04 07:22:17;;;;;;;;;12.67;8.00;;;;;;;;5121496;27;45581;-71
2022/07/04 07:24:43;;;;;;;;;14.33;10.33;;;;;;;;5121044;27;45413;-70
2022/07/04 07:27:08;;;;;;;;;9.33;7.67;;;;;;;;5121024;27;45618;-71
2022/07/04 07:29:34;;;;;;;;;6.67;6.00;;;;;;;;5121451;27;45824;-72
2022/07/04 07:31:59;;;;;;;;;7.33;6.00;;;;;;;;5120988;27;45866;-70
2022/07/04 07:34:24;;;;;;;;;10.33;7.33;;;;;;;;5121135;27;45288;-71
2022/07/04 07:36:50;;;;;;;;;6.33;6.00;;;;;;;;5120878;27;45413;-71
2022/07/04 07:39:15;;;;;;;;;5.33;5.33;;;;;;;;5121288;27;45397;-70
2022/07/04 07:41:40;;;;;;;;;4.33;4.33;;;;;;;;5120785;27;45465;-70
2022/07/04 07:44:05;;;;;;;;;8.00;6.00;;;;;;;;5120806;27;45347;-70
2022/07/04 07:46:31;;;;;;;;;7.00;5.67;;;;;;;;5120950;27;45355;-71
2022/07/04 07:48:56;;;;;;;;;8.67;8.00;;;;;;;;5120436;27;45418;-70
2022/07/04 07:51:21;;;;;;;;;7.33;7.33;;;;;;;;5120856;27;46353;-70
2022/07/04 07:53:46;;;;;;;;;10.00;7.00;;;;;;;;5120766;27;45316;-71
2022/07/04 07:56:13;;;;;;;;;7.67;7.00;;;;;;;;5120737;27;45426;-70
2022/07/04 07:58:38;;;;;;;;;10.33;8.00;;;;;;;;5120831;27;45376;-70
2022/07/04 08:01:03;;;;;;;;;6.33;6.00;;;;;;;;5120060;27;46483;-70
2022/07/04 08:06:12;;;;;;;;;9.00;6.67;;;;;;;;5120927;27;45476;-70
2022/07/04 08:08:38;;;;;;;;;8.33;6.00;;;;;;;;5120682;27;45302;-70
2022/07/04 08:11:03;;;;;;;;;11.33;7.00;;;;;;;;5120452;27;46453;-70
2022/07/04 08:13:29;;;;;;;;;6.00;5.00;;;;;;;;5120305;27;45414;-70
2022/07/04 08:15:54;;;;;;;;;8.67;7.33;;;;;;;;5120416;27;45370;-70
2022/07/04 08:18:19;;;;;;;;;8.00;6.00;;;;;;;;5120458;27;45316;-70
2022/07/04 08:20:44;;;;;;;;;11.33;8.00;;;;;;;;5120276;27;45651;-70
2022/07/04 08:23:10;;;;;;;;;8.33;8.33;;;;;;;;5120528;27;45309;-70
2022/07/04 08:25:35;;;;;;;;;8.00;8.00;;;;;;;;5120101;27;45472;-70
2022/07/04 08:28:00;;;;;;;;;8.00;8.00;;;;;;;;5120430;27;45302;-71
2022/07/04 08:30:26;;;;;;;;;8.00;6.00;;;;;;;;5120308;27;45391;-70
2022/07/04 08:32:51;;;;;;;;;6.67;5.00;;;;;;;;5120264;27;45169;-70
2022/07/04 08:35:16;;;;;;;;;7.67;5.67;;;;;;;;5120248;27;45211;-70
2022/07/04 08:37:41;;;;;;;;;8.67;5.33;;;;;;;;5120030;27;45575;-70
2022/07/04 08:40:07;;;;;;;;;9.33;6.33;;;;;;;;5120035;27;46245;-70
2022/07/04 08:42:35;;;;;;;;;6.33;4.67;;;;;;;;5119968;27;45333;-70
2022/07/04 08:45:01;;;;;;;;;5.67;4.67;;;;;;;;5119870;27;45355;-70
2022/07/04 08:47:28;;;;;;;;;7.33;6.00;;;;;;;;5119997;27;45386;-70
2022/07/04 08:50:00;;;;;;;;;8.00;5.33;;;;;;;;5119643;27;46815;-70
2022/07/04 08:52:38;;;;;;;;;4.00;4.00;;;;;;;;5119460;27;45448;-70
2022/07/04 09:00:32;;;;;;;;;6.67;6.00;;;;;;;;5118902;27;45879;-71
2022/07/04 09:02:59;;;;;;;;;5.33;5.00;;;;;;;;5118649;27;45377;-71
2022/07/04 09:05:24;;;;;;;;;6.00;6.00;;;;;;;;5118812;27;45857;-70
2022/07/04 09:07:50;;;;;;;;;5.67;4.00;;;;;;;;5119272;27;45383;-70
2022/07/04 09:10:16;;;;;;;;;5.00;5.00;;;;;;;;5118643;27;46433;-70
2022/07/04 09:12:41;;;;;;;;;8.33;6.00;;;;;;;;5116468;27;45474;-71
2022/07/04 09:15:06;;;;;;;;;4.67;4.67;;;;;;;;5119024;27;45350;-70
2022/07/04 09:17:32;;;;;;;;;7.67;4.00;;;;;;;;5117241;27;45548;-70
2022/07/04 09:20:24;;;;;;;;;5.67;4.67;;;;;;;;5118637;27;45396;-75
2022/07/04 09:22:51;;;;;;;;;4.00;4.00;;;;;;;;5118002;27;45154;-74
2022/07/04 09:25:16;;;;;;;;;4.00;4.00;;;;;;;;5118827;27;45400;-70
2022/07/04 09:27:44;;;;;;;;;6.33;5.00;;;;;;;;5125878;27;45369;-69
2022/07/04 09:30:11;;;;;;;;;5.00;4.33;;;;;;;;5139336;27;47247;-72
2022/07/04 09:32:40;;;;;;;;;6.33;4.00;;;;;;;;5127139;27;45371;-71
2022/07/04 09:35:07;;;;;;;;;3.33;3.33;;;;;;;;5119088;27;45297;-70
2022/07/04 09:37:36;;;;;;;;;3.33;3.33;;;;;;;;5107027;27;45262;-71
2022/07/04 09:40:02;;;;;;;;;4.67;3.00;;;;;;;;5118692;27;46186;-69
2022/07/04 09:42:34;;;;;;;;;3.67;3.67;;;;;;;;5119522;27;45299;-71
2022/07/04 09:45:03;;;;;;;;;6.00;4.33;;;;;;;;5119384;27;45402;-74
2022/07/04 09:47:29;;;;;;;;;3.00;2.00;;;;;;;;5118669;27;45489;-78
2022/07/04 09:49:59;;;;;;;;;3.00;3.00;;;;;;;;5120163;27;46417;-72
2022/07/04 09:52:24;;;;;;;;;6.67;3.67;;;;;;;;5139276;27;45377;-73
2022/07/04 09:54:49;;;;;;;;;2.67;2.67;;;;;;;;5139348;27;45554;-73
2022/07/04 09:57:21;;;;;;;;;2.00;2.00;;;;;;;;5130848;27;45347;-75
2022/07/04 09:59:46;;;;;;;;;2.00;2.00;;;;;;;;5118234;27;46307;-76
2022/07/04 10:02:13;;;;;;;;;2.00;2.00;;;;;;;;5118430;27;45500;-73
2022/07/04 10:04:41;;;;;;;;;5.00;2.67;;;;;;;;5118573;27;45261;-74
2022/07/04 10:07:06;;;;;;;;;6.67;4.67;;;;;;;;5118762;27;45335;-72
2022/07/04 10:09:32;;;;;;;;;1.67;1.67;;;;;;;;5118482;27;45417;-73
2022/07/04 10:11:57;;;;;;;;;6.00;1.67;;;;;;;;5117971;27;45355;-73
2022/07/04 10:14:23;;;;;;;;;1.67;1.67;;;;;;;;5118804;27;45735;-73
2022/07/04 10:16:48;;;;;;;;;3.00;3.00;;;;;;;;5118706;27;45361;-70
2022/07/04 10:19:14;;;;;;;;;2.00;2.00;;;;;;;;5116881;27;46835;-71
2022/07/04 10:21:40;;;;;;;;;1.00;1.00;;;;;;;;5118597;27;45352;-70
2022/07/04 10:24:05;;;;;;;;;1.75;1.75;;;;;;;;5118559;27;45245;-71
2022/07/04 10:26:31;;;;;;;;;1.00;1.00;;;;;;;;5118739;27;45258;-76
2022/07/04 10:28:56;;;;;;;;;2.75;2.75;;;;;;;;5118247;27;45624;-67
2022/07/04 10:31:23;;;;;;;;;0.00;0.00;;;;;;;;5118143;27;45280;-66
2022/07/04 10:33:49;;;;;;;;;2.75;1.75;;;;;;;;5118107;27;45302;-74
2022/07/04 10:36:22;;;;;;;;;3.00;1.75;;;;;;;;5117701;27;45412;-69
2022/07/04 10:38:51;;;;;;;;;2.00;0.75;;;;;;;;5110676;27;46690;-66
2022/07/04 10:41:20;;;;;;;;;0.00;0.00;;;;;;;;5138975;27;45406;-65
2022/07/04 10:43:47;;;;;;;;;0.00;0.00;;;;;;;;5125918;27;45418;-67
2022/07/04 10:46:13;;;;;;;;;0.00;0.00;;;;;;;;5118545;27;45219;-71
2022/07/04 10:48:51;;;;;;;;;0.00;0.00;;;;;;;;5118164;27;47650;-71
2022/07/04 10:51:30;;;;;;;;;0.00;0.00;;;;;;;;5118188;27;45250;-71
2022/07/04 10:54:03;;;;;;;;;0.50;0.50;;;;;;;;5118016;27;45386;-70
2022/07/04 10:56:29;;;;;;;;;2.00;2.00;;;;;;;;5118051;27;45302;-69
2022/07/04 10:58:55;;;;;;;;;6.25;4.00;;;;;;;;5117780;27;46158;-71
2022/07/04 11:01:20;;;;;;;;;11.00;9.25;;;;;;;;5117936;27;45436;-72
2022/07/04 11:03:46;;;;;;;;;5.25;5.25;;;;;;;;5118043;27;45252;-69
2022/07/04 11:06:31;;;;;;;;;27.00;25.75;;;;;;;;5119179;27;45334;-67
2022/07/04 11:09:22;;;;;;;;;8.25;8.25;;;;;;;;5117617;27;46532;-70
2022/07/04 11:11:49;;;;;;;;;23.00;20.75;;;;;;;;5114362;27;45485;-69
2022/07/04 11:14:33;;;;;;;;;13.75;13.75;;;;;;;;5117703;27;45434;-71
2022/07/04 11:16:58;;;;;;;;;29.75;27.00;;;;;;;;5117748;27;45372;-73
2022/07/04 11:19:24;;;;;;;;;26.25;21.50;;;;;;;;5117574;27;45377;-69
2022/07/04 11:21:49;;;;;;;;;16.25;13.00;;;;;;;;5125799;27;45506;-70
2022/07/04 11:24:14;;;;;;;;;32.25;28.00;;;;;;;;5125351;27;45454;-67
2022/07/04 11:26:39;;;;;;;;;6.67;6.67;;;;;;;;5120390;27;45468;-71
2022/07/04 11:29:05;;;;;;;;;15.50;15.50;;;;;;;;5101613;27;45378;-72
2022/07/04 11:31:41;;;;;;;;;2.00;2.00;;;;;;;;5100562;27;45370;-68
2022/07/04 11:34:06;;;;;;;;;13.00;10.00;;;;;;;;5100570;27;45379;-72
2022/07/04 11:36:31;;;;;;;;;15.33;14.00;;;;;;;;5100797;27;45325;-72
2022/07/04 11:39:00;;;;;;;;;25.00;20.67;;;;;;;;5100151;27;46517;-71
2022/07/04 11:47:05;;;;;;;;;3.33;3.33;;;;;;;;5114371;27;45266;-75
2022/07/04 11:49:30;;;;;;;;;6.00;6.00;;;;;;;;5120701;27;46145;-68
2022/07/04 11:51:55;;;;;;;;;3.67;2.33;;;;;;;;5120553;27;45314;-69
2022/07/04 11:54:21;;;;;;;;;5.00;5.00;;;;;;;;5120280;27;45346;-71
2022/07/04 11:56:46;;;;;;;;;7.67;5.33;;;;;;;;5121009;27;45557;-72
2022/07/04 11:59:13;;;;;;;;;6.67;3.00;;;;;;;;5112922;27;45688;-72
2022/07/04 12:01:38;;;;;;;;;9.33;6.00;;;;;;;;5116853;27;45506;-71
2022/07/04 12:04:17;;;;;;;;;16.33;16.33;;;;;;;;5120110;27;45529;-71
2022/07/04 12:06:44;;;;;;;;;10.67;9.33;;;;;;;;5120125;27;45512;-73
2022/07/04 12:09:09;;;;;;;;;6.00;6.00;;;;;;;;5119780;27;47001;-71
2022/07/04 12:12:10;;;;;;;;;10.33;10.33;;;;;;;;5119751;27;45306;-71
2022/07/04 12:14:35;;;;;;;;;34.00;28.00;;;;;;;;5095503;27;46078;-76
2022/07/04 12:17:17;;;;;;;;;24.33;24.33;;;;;;;;5096996;27;45635;-69
2022/07/04 12:19:51;;;;;;;;;20.67;16.33;;;;;;;;5096813;27;46231;-70
2022/07/04 12:22:36;;;;;;;;;10.00;8.33;;;;;;;;5097055;27;45410;-73
2022/07/04 12:25:04;;;;;;;;;6.00;6.00;;;;;;;;5096725;27;45482;-73
2022/07/04 12:27:29;;;;;;;;;4.00;3.67;;;;;;;;5096799;27;45573;-72
2022/07/04 12:29:55;;;;;;;;;7.33;7.00;;;;;;;;5087523;27;46071;-72
2022/07/04 12:32:20;;;;;;;;;14.67;11.67;;;;;;;;5076372;28;45432;-72
2022/07/04 12:34:46;;;;;;;;;4.00;4.00;;;;;;;;5075977;28;45359;-74
2022/07/04 12:37:12;;;;;;;;;7.67;4.67;;;;;;;;5076509;28;45369;-71
2022/07/04 12:39:39;;;;;;;;;7.00;7.00;;;;;;;;5105225;27;46457;-70
2022/07/04 12:42:08;;;;;;;;;2.00;2.00;;;;;;;;5096516;27;45331;-70
2022/07/04 12:44:33;;;;;;;;;13.33;11.33;;;;;;;;5096594;27;45515;-71
2022/07/04 12:46:58;;;;;;;;;3.00;3.00;;;;;;;;5096817;27;45459;-70
2022/07/04 12:49:24;;;;;;;;;2.33;2.33;;;;;;;;5115761;27;46267;-70
2022/07/04 12:51:49;;;;;;;;;2.00;2.00;;;;;;;;5135870;27;45499;-71
2022/07/04 12:54:15;;;;;;;;;7.00;4.00;;;;;;;;5140243;27;45379;-71
2022/07/04 12:56:44;;;;;;;;;6.00;5.00;;;;;;;;5140304;27;45386;-68
2022/07/04 12:59:10;;;;;;;;;8.33;5.33;;;;;;;;5116921;27;46781;-67
2022/07/04 13:01:38;;;;;;;;;4.33;3.00;;;;;;;;5118889;27;45379;-69
2022/07/04 13:04:04;;;;;;;;;2.67;2.67;;;;;;;;5118737;27;45522;-75
2022/07/04 13:06:29;;;;;;;;;3.67;2.00;;;;;;;;5119145;27;45154;-69
2022/07/04 13:08:54;;;;;;;;;8.00;8.00;;;;;;;;5118629;27;46029;-71
2022/07/04 13:14:04;;;;;;;;;4.00;2.33;;;;;;;;5119352;27;45427;-74
2022/07/04 13:16:29;;;;;;;;;4.33;3.00;;;;;;;;5121482;27;45390;-72
2022/07/04 13:18:54;;;;;;;;;8.67;8.00;;;;;;;;5119176;27;47325;-67
2022/07/04 13:21:27;;;;;;;;;10.00;4.00;;;;;;;;5119149;27;45422;-69
2022/07/04 13:23:53;;;;;;;;;3.00;3.00;;;;;;;;5119368;27;45330;-69
2022/07/04 13:26:20;;;;;;;;;4.00;3.00;;;;;;;;5118660;27;45912;-69
2022/07/04 13:28:48;;;;;;;;;3.00;3.00;;;;;;;;5117767;27;47052;-68
2022/07/04 13:31:16;;;;;;;;;2.00;1.00;;;;;;;;5118680;27;45267;-70
2022/07/04 13:33:41;;;;;;;;;7.00;4.00;;;;;;;;5118509;27;45479;-72
2022/07/04 13:36:07;;;;;;;;;4.33;4.33;;;;;;;;5118324;27;45480;-70
2022/07/04 13:38:41;;;;;;;;;4.00;4.00;;;;;;;;5119217;27;45510;-69
2022/07/04 13:41:06;;;;;;;;;3.00;2.00;;;;;;;;5119269;27;45364;-69
2022/07/04 13:43:31;;;;;;;;;3.33;2.33;;;;;;;;5120263;27;45191;-70
2022/07/04 13:45:56;;;;;;;;;2.00;2.00;;;;;;;;5118139;27;45538;-71
2022/07/04 13:48:22;;;;;;;;;1.00;1.00;;;;;;;;5118814;27;46420;-73
2022/07/04 13:50:47;;;;;;;;;1.00;1.00;;;;;;;;5118095;27;45626;-70
2022/07/04 13:53:12;;;;;;;;;3.00;3.00;;;;;;;;5119190;27;45527;-71
2022/07/04 13:55:38;;;;;;;;;5.33;5.33;;;;;;;;5119122;27;45395;-68
2022/07/04 13:58:07;;;;;;;;;2.00;2.00;;;;;;;;5118590;27;46479;-70
2022/07/04 14:00:38;;;;;;;;;3.33;2.00;;;;;;;;5117450;27;45261;-69
2022/07/04 14:03:03;;;;;;;;;4.00;3.00;;;;;;;;5118543;27;45305;-74
2022/07/04 14:05:31;;;;;;;;;2.00;2.00;;;;;;;;5117003;27;45306;-71
2022/07/04 14:07:57;;;;;;;;;2.00;2.00;;;;;;;;5118521;27;46595;-69
2022/07/04 14:10:24;;;;;;;;;6.33;5.00;;;;;;;;5118335;27;45404;-68
2022/07/04 14:12:49;;;;;;;;;2.67;2.67;;;;;;;;5118611;27;45496;-72
2022/07/04 14:15:15;;;;;;;;;2.00;2.00;;;;;;;;5118752;27;45224;-68
2022/07/04 14:17:43;;;;;;;;;3.00;3.00;;;;;;;;5117679;27;46578;-71
2022/07/04 14:20:11;;;;;;;;;2.00;2.00;;;;;;;;5118499;27;45306;-75
2022/07/04 14:22:37;;;;;;;;;2.33;1.00;;;;;;;;5119336;27;45366;-68
2022/07/04 14:25:03;;;;;;;;;2.67;2.67;;;;;;;;5126781;27;45387;-71
2022/07/04 14:27:30;;;;;;;;;1.00;1.00;;;;;;;;5139024;27;46585;-71
2022/07/04 14:29:56;;;;;;;;;4.00;4.00;;;;;;;;5121624;27;45456;-67
2022/07/04 14:32:21;;;;;;;;;1.67;1.67;;;;;;;;5118089;27;45333;-71
2022/07/04 14:34:46;;;;;;;;;3.00;2.00;;;;;;;;5118258;27;45212;-69
2022/07/04 14:37:12;;;;;;;;;1.00;1.00;;;;;;;;5118892;27;45412;-68
2022/07/04 14:39:37;;;;;;;;;1.67;1.67;;;;;;;;5129905;27;45441;-69
2022/07/04 14:42:02;;;;;;;;;1.00;1.00;;;;;;;;5118520;27;45370;-69
2022/07/04 14:44:28;;;;;;;;;1.67;1.67;;;;;;;;5118423;27;45226;-69
2022/07/04 14:46:56;;;;;;;;;5.00;2.00;;;;;;;;5117829;27;47416;-70
2022/07/04 14:49:31;;;;;;;;;1.00;1.00;;;;;;;;5117687;27;45270;-69
2022/07/04 14:51:59;;;;;;;;;1.67;1.67;;;;;;;;5118024;27;45411;-69
2022/07/04 14:54:24;;;;;;;;;2.00;2.00;;;;;;;;5118107;27;45409;-67
2022/07/04 14:56:50;;;;;;;;;2.33;1.33;;;;;;;;5119099;27;46527;-66